sensor_id;sensor_type;location;lat;lon;timestamp;P1;durP1;ratioP1;P2;durP2;ratioP2
79330;SDS011;68797;49.782;19.054;2023-07-08T00:00:33;8.77;;;5.05;;
79330;SDS011;68797;49.782;19.054;2023-07-08T00:03:42;10.45;;;5.75;;
79330;SDS011;68797;49.782;19.054;2023-07-08T00:06:18;6.88;;;4.88;;
79330;SDS011;68797;49.782;19.054;2023-07-08T00:08:56;11.43;;;6.20;;
79330;SDS011;68797;49.782;19.054;2023-07-08T00:11:56;9.63;;;5.72;;
79330;SDS011;68797;49.782;19.054;2023-07-08T00:14:26;13.43;;;6.53;;
79330;SDS011;68797;49.782;19.054;2023-07-08T00:16:59;11.00;;;7.00;;
79330;SDS011;68797;49.782;19.054;2023-07-08T00:19:32;9.20;;;6.75;;
79330;SDS011;68797;49.782;19.054;2023-07-08T00:22:14;12.75;;;7.10;;
79330;SDS011;68797;49.782;19.054;2023-07-08T00:24:50;10.48;;;7.10;;
79330;SDS011;68797;49.782;19.054;2023-07-08T00:27:29;13.07;;;7.57;;
79330;SDS011;68797;49.782;19.054;2023-07-08T00:29:57;8.95;;;6.28;;
79330;SDS011;68797;49.782;19.054;2023-07-08T00:32:28;10.00;;;6.75;;
79330;SDS011;68797;49.782;19.054;2023-07-08T00:37:37;10.05;;;6.68;;
79330;SDS011;68797;49.782;19.054;2023-07-08T00:40:15;10.05;;;7.00;;
79330;SDS011;68797;49.782;19.054;2023-07-08T00:42:54;14.90;;;6.95;;
79330;SDS011;68797;49.782;19.054;2023-07-08T00:48:05;8.35;;;6.13;;
79330;SDS011;68797;49.782;19.054;2023-07-08T00:50:47;9.48;;;6.95;;
79330;SDS011;68797;49.782;19.054;2023-07-08T00:53:35;11.13;;;6.05;;
79330;SDS011;68797;49.782;19.054;2023-07-08T00:56:16;13.82;;;6.38;;
79330;SDS011;68797;49.782;19.054;2023-07-08T00:59:01;11.63;;;6.57;;
79330;SDS011;68797;49.782;19.054;2023-07-08T01:01:43;11.23;;;6.22;;
79330;SDS011;68797;49.782;19.054;2023-07-08T01:06:44;9.77;;;5.97;;
79330;SDS011;68797;49.782;19.054;2023-07-08T01:09:38;11.75;;;6.03;;
79330;SDS011;68797;49.782;19.054;2023-07-08T01:12:14;10.93;;;7.40;;
79330;SDS011;68797;49.782;19.054;2023-07-08T01:14:51;9.95;;;6.20;;
79330;SDS011;68797;49.782;19.054;2023-07-08T01:17:22;12.88;;;6.82;;
79330;SDS011;68797;49.782;19.054;2023-07-08T01:19:52;8.98;;;6.53;;
79330;SDS011;68797;49.782;19.054;2023-07-08T01:22:42;7.78;;;5.57;;
79330;SDS011;68797;49.782;19.054;2023-07-08T01:25:15;10.32;;;6.68;;
79330;SDS011;68797;49.782;19.054;2023-07-08T01:27:48;9.05;;;5.85;;
79330;SDS011;68797;49.782;19.054;2023-07-08T01:30:19;8.45;;;5.65;;
79330;SDS011;68797;49.782;19.054;2023-07-08T01:33:02;12.02;;;6.15;;
79330;SDS011;68797;49.782;19.054;2023-07-08T01:35:39;12.15;;;6.38;;
79330;SDS011;68797;49.782;19.054;2023-07-08T01:38:08;9.30;;;6.28;;
79330;SDS011;68797;49.782;19.054;2023-07-08T01:40:48;8.93;;;5.68;;
79330;SDS011;68797;49.782;19.054;2023-07-08T01:43:32;10.48;;;6.60;;
79330;SDS011;68797;49.782;19.054;2023-07-08T01:46:02;10.13;;;6.20;;
79330;SDS011;68797;49.782;19.054;2023-07-08T01:48:33;9.57;;;6.07;;
79330;SDS011;68797;49.782;19.054;2023-07-08T01:51:05;11.88;;;6.30;;
79330;SDS011;68797;49.782;19.054;2023-07-08T01:53:39;9.65;;;5.97;;
79330;SDS011;68797;49.782;19.054;2023-07-08T01:56:10;10.43;;;6.22;;
79330;SDS011;68797;49.782;19.054;2023-07-08T01:58:44;7.75;;;5.63;;
79330;SDS011;68797;49.782;19.054;2023-07-08T02:01:13;9.40;;;5.63;;
79330;SDS011;68797;49.782;19.054;2023-07-08T02:03:47;9.48;;;5.50;;
79330;SDS011;68797;49.782;19.054;2023-07-08T02:06:22;8.10;;;5.30;;
79330;SDS011;68797;49.782;19.054;2023-07-08T02:08:52;8.50;;;5.82;;
79330;SDS011;68797;49.782;19.054;2023-07-08T02:11:28;9.23;;;6.28;;
79330;SDS011;68797;49.782;19.054;2023-07-08T02:14:10;7.95;;;6.07;;
79330;SDS011;68797;49.782;19.054;2023-07-08T02:16:46;10.90;;;5.80;;
79330;SDS011;68797;49.782;19.054;2023-07-08T02:19:12;10.23;;;6.18;;
79330;SDS011;68797;49.782;19.054;2023-07-08T02:21:52;13.52;;;6.68;;
79330;SDS011;68797;49.782;19.054;2023-07-08T02:24:29;9.00;;;5.78;;
79330;SDS011;68797;49.782;19.054;2023-07-08T02:27:00;10.77;;;5.88;;
79330;SDS011;68797;49.782;19.054;2023-07-08T02:29:36;8.52;;;6.30;;
79330;SDS011;68797;49.782;19.054;2023-07-08T02:32:08;9.60;;;5.95;;
79330;SDS011;68797;49.782;19.054;2023-07-08T02:34:40;8.32;;;5.75;;
79330;SDS011;68797;49.782;19.054;2023-07-08T02:37:13;8.93;;;5.65;;
79330;SDS011;68797;49.782;19.054;2023-07-08T02:39:45;9.98;;;6.05;;
79330;SDS011;68797;49.782;19.054;2023-07-08T02:42:16;7.65;;;5.30;;
79330;SDS011;68797;49.782;19.054;2023-07-08T02:44:43;9.15;;;5.78;;
79330;SDS011;68797;49.782;19.054;2023-07-08T02:47:19;9.00;;;6.18;;
79330;SDS011;68797;49.782;19.054;2023-07-08T02:49:45;8.55;;;5.40;;
79330;SDS011;68797;49.782;19.054;2023-07-08T02:52:25;7.47;;;4.53;;
79330;SDS011;68797;49.782;19.054;2023-07-08T02:55:02;6.55;;;4.55;;
79330;SDS011;68797;49.782;19.054;2023-07-08T02:57:30;7.10;;;4.97;;
79330;SDS011;68797;49.782;19.054;2023-07-08T03:00:05;8.25;;;4.63;;
79330;SDS011;68797;49.782;19.054;2023-07-08T03:02:35;7.97;;;5.13;;
79330;SDS011;68797;49.782;19.054;2023-07-08T03:05:09;7.40;;;4.93;;
79330;SDS011;68797;49.782;19.054;2023-07-08T03:07:47;8.18;;;5.32;;
79330;SDS011;68797;49.782;19.054;2023-07-08T03:10:23;7.78;;;5.07;;
79330;SDS011;68797;49.782;19.054;2023-07-08T03:12:55;6.63;;;4.45;;
79330;SDS011;68797;49.782;19.054;2023-07-08T03:15:25;7.05;;;4.40;;
79330;SDS011;68797;49.782;19.054;2023-07-08T03:18:00;7.30;;;4.55;;
79330;SDS011;68797;49.782;19.054;2023-07-08T03:20:26;8.27;;;4.53;;
79330;SDS011;68797;49.782;19.054;2023-07-08T03:22:57;6.78;;;4.82;;
79330;SDS011;68797;49.782;19.054;2023-07-08T03:25:31;7.45;;;4.75;;
79330;SDS011;68797;49.782;19.054;2023-07-08T03:28:06;8.10;;;5.70;;
79330;SDS011;68797;49.782;19.054;2023-07-08T03:30:45;7.88;;;4.85;;
79330;SDS011;68797;49.782;19.054;2023-07-08T03:33:26;7.03;;;4.43;;
79330;SDS011;68797;49.782;19.054;2023-07-08T03:35:55;7.68;;;4.72;;
79330;SDS011;68797;49.782;19.054;2023-07-08T03:38:36;8.32;;;5.38;;
79330;SDS011;68797;49.782;19.054;2023-07-08T03:41:08;8.30;;;5.68;;
79330;SDS011;68797;49.782;19.054;2023-07-08T03:43:38;6.97;;;5.18;;
79330;SDS011;68797;49.782;19.054;2023-07-08T03:46:11;6.95;;;5.40;;
79330;SDS011;68797;49.782;19.054;2023-07-08T03:48:41;9.35;;;5.28;;
79330;SDS011;68797;49.782;19.054;2023-07-08T03:51:19;9.85;;;5.28;;
79330;SDS011;68797;49.782;19.054;2023-07-08T03:53:54;8.50;;;5.60;;
79330;SDS011;68797;49.782;19.054;2023-07-08T03:56:34;6.20;;;4.70;;
79330;SDS011;68797;49.782;19.054;2023-07-08T03:59:13;5.97;;;5.18;;
79330;SDS011;68797;49.782;19.054;2023-07-08T04:01:45;7.88;;;4.82;;
79330;SDS011;68797;49.782;19.054;2023-07-08T04:04:22;9.90;;;6.43;;
79330;SDS011;68797;49.782;19.054;2023-07-08T04:06:52;7.82;;;5.32;;
79330;SDS011;68797;49.782;19.054;2023-07-08T04:09:27;8.65;;;5.93;;
79330;SDS011;68797;49.782;19.054;2023-07-08T04:11:57;10.75;;;6.50;;
79330;SDS011;68797;49.782;19.054;2023-07-08T04:14:26;9.32;;;5.93;;
79330;SDS011;68797;49.782;19.054;2023-07-08T04:16:54;9.55;;;5.60;;
79330;SDS011;68797;49.782;19.054;2023-07-08T04:19:29;8.63;;;5.50;;
79330;SDS011;68797;49.782;19.054;2023-07-08T04:21:58;10.38;;;6.00;;
79330;SDS011;68797;49.782;19.054;2023-07-08T04:24:32;9.27;;;5.88;;
79330;SDS011;68797;49.782;19.054;2023-07-08T04:26:59;11.27;;;6.18;;
79330;SDS011;68797;49.782;19.054;2023-07-08T04:29:36;10.60;;;6.10;;
79330;SDS011;68797;49.782;19.054;2023-07-08T04:32:13;9.52;;;5.68;;
79330;SDS011;68797;49.782;19.054;2023-07-08T04:34:41;11.40;;;5.78;;
79330;SDS011;68797;49.782;19.054;2023-07-08T04:37:11;8.90;;;6.43;;
79330;SDS011;68797;49.782;19.054;2023-07-08T04:39:59;9.40;;;6.53;;
79330;SDS011;68797;49.782;19.054;2023-07-08T04:42:26;9.93;;;6.15;;
79330;SDS011;68797;49.782;19.054;2023-07-08T04:44:57;9.25;;;5.45;;
79330;SDS011;68797;49.782;19.054;2023-07-08T04:47:26;8.45;;;5.20;;
79330;SDS011;68797;49.782;19.054;2023-07-08T04:50:01;6.20;;;4.88;;
79330;SDS011;68797;49.782;19.054;2023-07-08T04:52:28;8.70;;;4.63;;
79330;SDS011;68797;49.782;19.054;2023-07-08T04:55:07;11.15;;;5.30;;
79330;SDS011;68797;49.782;19.054;2023-07-08T04:57:40;7.57;;;4.97;;
79330;SDS011;68797;49.782;19.054;2023-07-08T05:00:21;7.43;;;5.57;;
79330;SDS011;68797;49.782;19.054;2023-07-08T05:02:56;8.30;;;4.80;;
79330;SDS011;68797;49.782;19.054;2023-07-08T05:05:29;7.28;;;4.70;;
79330;SDS011;68797;49.782;19.054;2023-07-08T05:07:56;7.60;;;4.85;;
79330;SDS011;68797;49.782;19.054;2023-07-08T05:10:29;6.30;;;3.78;;
79330;SDS011;68797;49.782;19.054;2023-07-08T05:12:59;8.15;;;4.70;;
79330;SDS011;68797;49.782;19.054;2023-07-08T05:15:39;6.30;;;4.20;;
79330;SDS011;68797;49.782;19.054;2023-07-08T05:18:09;9.10;;;4.15;;
79330;SDS011;68797;49.782;19.054;2023-07-08T05:20:42;11.38;;;4.63;;
79330;SDS011;68797;49.782;19.054;2023-07-08T05:23:23;7.53;;;4.30;;
79330;SDS011;68797;49.782;19.054;2023-07-08T05:25:59;6.57;;;3.70;;
79330;SDS011;68797;49.782;19.054;2023-07-08T05:28:32;8.25;;;4.18;;
79330;SDS011;68797;49.782;19.054;2023-07-08T05:31:12;6.35;;;3.80;;
79330;SDS011;68797;49.782;19.054;2023-07-08T05:33:45;5.50;;;4.10;;
79330;SDS011;68797;49.782;19.054;2023-07-08T05:36:35;5.40;;;3.63;;
79330;SDS011;68797;49.782;19.054;2023-07-08T05:39:10;6.10;;;3.60;;
79330;SDS011;68797;49.782;19.054;2023-07-08T05:41:43;6.65;;;4.40;;
79330;SDS011;68797;49.782;19.054;2023-07-08T05:44:17;6.15;;;4.20;;
79330;SDS011;68797;49.782;19.054;2023-07-08T05:47:17;6.88;;;4.25;;
79330;SDS011;68797;49.782;19.054;2023-07-08T05:49:48;6.18;;;3.95;;
79330;SDS011;68797;49.782;19.054;2023-07-08T05:52:24;5.55;;;3.75;;
79330;SDS011;68797;49.782;19.054;2023-07-08T05:55:08;6.65;;;3.75;;
79330;SDS011;68797;49.782;19.054;2023-07-08T05:58:41;5.88;;;3.75;;
79330;SDS011;68797;49.782;19.054;2023-07-08T06:01:53;5.40;;;3.88;;
79330;SDS011;68797;49.782;19.054;2023-07-08T06:04:32;5.07;;;3.35;;
79330;SDS011;68797;49.782;19.054;2023-07-08T06:08:08;4.20;;;3.55;;
79330;SDS011;68797;49.782;19.054;2023-07-08T06:10:54;7.05;;;3.53;;
79330;SDS011;68797;49.782;19.054;2023-07-08T06:14:34;8.38;;;3.70;;
79330;SDS011;68797;49.782;19.054;2023-07-08T06:17:39;5.20;;;3.40;;
79330;SDS011;68797;49.782;19.054;2023-07-08T06:20:30;4.82;;;3.55;;
79330;SDS011;68797;49.782;19.054;2023-07-08T06:23:14;4.55;;;3.53;;
79330;SDS011;68797;49.782;19.054;2023-07-08T06:26:07;8.13;;;3.80;;
79330;SDS011;68797;49.782;19.054;2023-07-08T06:28:56;5.82;;;3.33;;
79330;SDS011;68797;49.782;19.054;2023-07-08T06:32:09;7.07;;;3.78;;
79330;SDS011;68797;49.782;19.054;2023-07-08T06:34:57;5.35;;;4.18;;
79330;SDS011;68797;49.782;19.054;2023-07-08T06:38:37;6.68;;;3.80;;
79330;SDS011;68797;49.782;19.054;2023-07-08T06:41:30;6.35;;;3.65;;
79330;SDS011;68797;49.782;19.054;2023-07-08T06:44:18;7.22;;;4.05;;
79330;SDS011;68797;49.782;19.054;2023-07-08T06:47:49;4.72;;;3.90;;
79330;SDS011;68797;49.782;19.054;2023-07-08T06:50:41;4.53;;;3.70;;
79330;SDS011;68797;49.782;19.054;2023-07-08T06:56:28;7.18;;;4.43;;
79330;SDS011;68797;49.782;19.054;2023-07-08T06:59:33;6.40;;;3.97;;
79330;SDS011;68797;49.782;19.054;2023-07-08T07:06:21;5.93;;;3.78;;
79330;SDS011;68797;49.782;19.054;2023-07-08T07:09:04;6.50;;;3.58;;
79330;SDS011;68797;49.782;19.054;2023-07-08T07:11:53;6.38;;;3.60;;
79330;SDS011;68797;49.782;19.054;2023-07-08T07:14:37;4.30;;;3.28;;
79330;SDS011;68797;49.782;19.054;2023-07-08T07:17:32;5.78;;;3.65;;
79330;SDS011;68797;49.782;19.054;2023-07-08T07:20:22;6.40;;;3.70;;
79330;SDS011;68797;49.782;19.054;2023-07-08T07:23:06;4.75;;;3.67;;
79330;SDS011;68797;49.782;19.054;2023-07-08T07:25:40;5.47;;;3.50;;
79330;SDS011;68797;49.782;19.054;2023-07-08T07:28:33;6.47;;;4.13;;
79330;SDS011;68797;49.782;19.054;2023-07-08T07:34:21;4.35;;;3.08;;
79330;SDS011;68797;49.782;19.054;2023-07-08T07:40:19;5.68;;;3.70;;
79330;SDS011;68797;49.782;19.054;2023-07-08T07:42:55;4.55;;;3.15;;
79330;SDS011;68797;49.782;19.054;2023-07-08T07:45:53;4.68;;;3.28;;
79330;SDS011;68797;49.782;19.054;2023-07-08T07:48:37;5.47;;;3.00;;
79330;SDS011;68797;49.782;19.054;2023-07-08T07:51:11;5.38;;;3.15;;
79330;SDS011;68797;49.782;19.054;2023-07-08T07:53:53;3.53;;;2.63;;
79330;SDS011;68797;49.782;19.054;2023-07-08T07:56:29;6.40;;;3.15;;
79330;SDS011;68797;49.782;19.054;2023-07-08T07:59:09;4.40;;;2.88;;
79330;SDS011;68797;49.782;19.054;2023-07-08T08:01:55;3.72;;;3.15;;
79330;SDS011;68797;49.782;19.054;2023-07-08T08:06:59;4.65;;;2.75;;
79330;SDS011;68797;49.782;19.054;2023-07-08T08:09:54;4.90;;;2.78;;
79330;SDS011;68797;49.782;19.054;2023-07-08T08:15:30;4.57;;;2.63;;
79330;SDS011;68797;49.782;19.054;2023-07-08T08:18:39;3.55;;;2.35;;
79330;SDS011;68797;49.782;19.054;2023-07-08T08:21:50;2.85;;;2.30;;
79330;SDS011;68797;49.782;19.054;2023-07-08T08:25:04;5.38;;;2.83;;
79330;SDS011;68797;49.782;19.054;2023-07-08T08:28:17;2.95;;;2.60;;
79330;SDS011;68797;49.782;19.054;2023-07-08T08:31:58;3.22;;;2.47;;
79330;SDS011;68797;49.782;19.054;2023-07-08T08:35:07;6.25;;;2.75;;
79330;SDS011;68797;49.782;19.054;2023-07-08T08:38:20;5.28;;;2.58;;
79330;SDS011;68797;49.782;19.054;2023-07-08T08:42:09;5.38;;;2.78;;
79330;SDS011;68797;49.782;19.054;2023-07-08T08:49:54;3.65;;;2.30;;
79330;SDS011;68797;49.782;19.054;2023-07-08T08:54:27;4.70;;;2.83;;
79330;SDS011;68797;49.782;19.054;2023-07-08T09:01:40;3.38;;;2.53;;
79330;SDS011;68797;49.782;19.054;2023-07-08T09:05:24;3.63;;;2.55;;
79330;SDS011;68797;49.782;19.054;2023-07-08T09:08:48;6.40;;;2.55;;
79330;SDS011;68797;49.782;19.054;2023-07-08T09:12:35;3.08;;;2.53;;
79330;SDS011;68797;49.782;19.054;2023-07-08T09:15:50;4.47;;;2.65;;
79330;SDS011;68797;49.782;19.054;2023-07-08T09:23:31;8.45;;;2.58;;
79330;SDS011;68797;49.782;19.054;2023-07-08T09:26:47;4.18;;;2.70;;
79330;SDS011;68797;49.782;19.054;2023-07-08T09:30:16;4.53;;;2.40;;
79330;SDS011;68797;49.782;19.054;2023-07-08T09:33:41;3.30;;;2.63;;
79330;SDS011;68797;49.782;19.054;2023-07-08T09:36:49;4.32;;;2.75;;
79330;SDS011;68797;49.782;19.054;2023-07-08T09:40:16;3.97;;;2.50;;
79330;SDS011;68797;49.782;19.054;2023-07-08T09:45:46;3.90;;;2.92;;
79330;SDS011;68797;49.782;19.054;2023-07-08T09:48:29;5.25;;;2.90;;
79330;SDS011;68797;49.782;19.054;2023-07-08T09:51:14;3.10;;;2.55;;
79330;SDS011;68797;49.782;19.054;2023-07-08T09:53:49;3.90;;;2.65;;
79330;SDS011;68797;49.782;19.054;2023-07-08T09:56:32;4.10;;;2.88;;
79330;SDS011;68797;49.782;19.054;2023-07-08T09:59:19;4.45;;;2.70;;
79330;SDS011;68797;49.782;19.054;2023-07-08T10:05:06;5.65;;;2.97;;
79330;SDS011;68797;49.782;19.054;2023-07-08T10:08:07;3.60;;;2.70;;
79330;SDS011;68797;49.782;19.054;2023-07-08T10:10:48;3.70;;;2.45;;
79330;SDS011;68797;49.782;19.054;2023-07-08T10:13:39;3.25;;;2.75;;
79330;SDS011;68797;49.782;19.054;2023-07-08T10:16:41;4.07;;;2.88;;
79330;SDS011;68797;49.782;19.054;2023-07-08T10:19:28;4.30;;;2.70;;
79330;SDS011;68797;49.782;19.054;2023-07-08T10:24:59;3.30;;;2.67;;
79330;SDS011;68797;49.782;19.054;2023-07-08T10:52:04;4.78;;;2.92;;
79330;SDS011;68797;49.782;19.054;2023-07-08T11:07:36;5.00;;;2.70;;
79330;SDS011;68797;49.782;19.054;2023-07-08T11:10:27;4.65;;;3.28;;
79330;SDS011;68797;49.782;19.054;2023-07-08T11:13:14;5.65;;;2.95;;
79330;SDS011;68797;49.782;19.054;2023-07-08T11:19:33;5.03;;;2.95;;
79330;SDS011;68797;49.782;19.054;2023-07-08T11:22:10;4.40;;;2.90;;
79330;SDS011;68797;49.782;19.054;2023-07-08T11:24:49;4.55;;;3.22;;
79330;SDS011;68797;49.782;19.054;2023-07-08T11:27:29;4.00;;;2.90;;
79330;SDS011;68797;49.782;19.054;2023-07-08T11:32:40;4.90;;;3.20;;
79330;SDS011;68797;49.782;19.054;2023-07-08T11:35:44;3.70;;;2.95;;
79330;SDS011;68797;49.782;19.054;2023-07-08T11:38:49;3.50;;;2.80;;
79330;SDS011;68797;49.782;19.054;2023-07-08T11:41:31;6.63;;;3.33;;
79330;SDS011;68797;49.782;19.054;2023-07-08T11:44:03;3.83;;;2.53;;
79330;SDS011;68797;49.782;19.054;2023-07-08T11:46:53;3.78;;;3.10;;
79330;SDS011;68797;49.782;19.054;2023-07-08T11:49:28;3.88;;;2.80;;
79330;SDS011;68797;49.782;19.054;2023-07-08T11:52:25;3.40;;;2.72;;
79330;SDS011;68797;49.782;19.054;2023-07-08T11:55:35;4.13;;;2.70;;
79330;SDS011;68797;49.782;19.054;2023-07-08T11:58:26;3.30;;;2.85;;
79330;SDS011;68797;49.782;19.054;2023-07-08T12:04:23;3.38;;;2.58;;
79330;SDS011;68797;49.782;19.054;2023-07-08T12:07:17;4.13;;;2.90;;
79330;SDS011;68797;49.782;19.054;2023-07-08T12:09:59;5.35;;;2.72;;
79330;SDS011;68797;49.782;19.054;2023-07-08T12:12:55;4.20;;;2.90;;
79330;SDS011;68797;49.782;19.054;2023-07-08T12:18:24;3.47;;;2.35;;
79330;SDS011;68797;49.782;19.054;2023-07-08T12:21:09;3.72;;;2.95;;
79330;SDS011;68797;49.782;19.054;2023-07-08T12:23:45;3.05;;;2.53;;
79330;SDS011;68797;49.782;19.054;2023-07-08T12:26:18;5.13;;;3.38;;
79330;SDS011;68797;49.782;19.054;2023-07-08T12:29:05;5.07;;;3.17;;
79330;SDS011;68797;49.782;19.054;2023-07-08T12:31:37;4.75;;;3.25;;
79330;SDS011;68797;49.782;19.054;2023-07-08T12:34:29;5.28;;;2.97;;
79330;SDS011;68797;49.782;19.054;2023-07-08T12:37:08;5.43;;;2.95;;
79330;SDS011;68797;49.782;19.054;2023-07-08T12:39:58;4.65;;;3.40;;
79330;SDS011;68797;49.782;19.054;2023-07-08T12:42:47;4.43;;;3.05;;
79330;SDS011;68797;49.782;19.054;2023-07-08T12:45:31;4.65;;;3.50;;
79330;SDS011;68797;49.782;19.054;2023-07-08T12:48:05;3.40;;;3.00;;
79330;SDS011;68797;49.782;19.054;2023-07-08T12:50:56;5.85;;;3.35;;
79330;SDS011;68797;49.782;19.054;2023-07-08T12:53:57;4.72;;;2.95;;
79330;SDS011;68797;49.782;19.054;2023-07-08T12:56:40;4.50;;;3.17;;
79330;SDS011;68797;49.782;19.054;2023-07-08T12:59:26;5.30;;;3.05;;
79330;SDS011;68797;49.782;19.054;2023-07-08T13:02:20;4.13;;;3.00;;
79330;SDS011;68797;49.782;19.054;2023-07-08T13:07:55;4.32;;;2.85;;
79330;SDS011;68797;49.782;19.054;2023-07-08T13:10:47;4.68;;;3.05;;
79330;SDS011;68797;49.782;19.054;2023-07-08T13:13:48;4.90;;;3.00;;
79330;SDS011;68797;49.782;19.054;2023-07-08T13:16:38;4.97;;;2.83;;
79330;SDS011;68797;49.782;19.054;2023-07-08T13:19:14;5.97;;;3.22;;
79330;SDS011;68797;49.782;19.054;2023-07-08T13:22:04;4.97;;;3.03;;
79330;SDS011;68797;49.782;19.054;2023-07-08T13:24:37;2.88;;;2.47;;
79330;SDS011;68797;49.782;19.054;2023-07-08T13:27:22;3.97;;;2.90;;
79330;SDS011;68797;49.782;19.054;2023-07-08T13:30:06;3.92;;;2.78;;
79330;SDS011;68797;49.782;19.054;2023-07-08T13:33:00;4.57;;;2.67;;
79330;SDS011;68797;49.782;19.054;2023-07-08T13:36:34;6.05;;;4.43;;
79330;SDS011;68797;49.782;19.054;2023-07-08T13:39:43;4.10;;;2.85;;
79330;SDS011;68797;49.782;19.054;2023-07-08T13:42:18;5.35;;;2.70;;
79330;SDS011;68797;49.782;19.054;2023-07-08T13:44:59;6.00;;;3.78;;
79330;SDS011;68797;49.782;19.054;2023-07-08T13:47:33;4.72;;;2.95;;
79330;SDS011;68797;49.782;19.054;2023-07-08T13:52:59;6.05;;;3.65;;
79330;SDS011;68797;49.782;19.054;2023-07-08T13:55:30;7.90;;;3.58;;
79330;SDS011;68797;49.782;19.054;2023-07-08T13:58:26;4.60;;;2.80;;
79330;SDS011;68797;49.782;19.054;2023-07-08T14:01:05;5.93;;;3.00;;
79330;SDS011;68797;49.782;19.054;2023-07-08T14:03:43;4.13;;;3.13;;
79330;SDS011;68797;49.782;19.054;2023-07-08T14:06:19;4.65;;;2.95;;
79330;SDS011;68797;49.782;19.054;2023-07-08T14:09:11;5.53;;;3.20;;
79330;SDS011;68797;49.782;19.054;2023-07-08T14:11:55;5.38;;;3.30;;
79330;SDS011;68797;49.782;19.054;2023-07-08T14:14:43;5.40;;;3.15;;
79330;SDS011;68797;49.782;19.054;2023-07-08T14:17:38;3.55;;;2.88;;
79330;SDS011;68797;49.782;19.054;2023-07-08T14:20:30;5.13;;;3.50;;
79330;SDS011;68797;49.782;19.054;2023-07-08T14:23:03;6.18;;;3.30;;
79330;SDS011;68797;49.782;19.054;2023-07-08T14:25:55;4.43;;;3.40;;
79330;SDS011;68797;49.782;19.054;2023-07-08T14:28:30;7.95;;;3.70;;
79330;SDS011;68797;49.782;19.054;2023-07-08T14:34:54;7.15;;;3.80;;
79330;SDS011;68797;49.782;19.054;2023-07-08T14:38:17;3.92;;;3.35;;
79330;SDS011;68797;49.782;19.054;2023-07-08T14:41:45;7.82;;;4.75;;
79330;SDS011;68797;49.782;19.054;2023-07-08T14:45:30;4.63;;;2.95;;
79330;SDS011;68797;49.782;19.054;2023-07-08T14:56:14;4.82;;;2.70;;
79330;SDS011;68797;49.782;19.054;2023-07-08T14:59:40;5.13;;;3.35;;
79330;SDS011;68797;49.782;19.054;2023-07-08T15:02:39;5.15;;;3.17;;
79330;SDS011;68797;49.782;19.054;2023-07-08T15:09:37;3.15;;;2.53;;
79330;SDS011;68797;49.782;19.054;2023-07-08T15:13:12;3.33;;;2.70;;
79330;SDS011;68797;49.782;19.054;2023-07-08T15:15:49;5.05;;;2.90;;
79330;SDS011;68797;49.782;19.054;2023-07-08T15:19:03;5.38;;;3.00;;
79330;SDS011;68797;49.782;19.054;2023-07-08T15:22:49;5.20;;;3.00;;
79330;SDS011;68797;49.782;19.054;2023-07-08T15:31:01;3.85;;;2.72;;
79330;SDS011;68797;49.782;19.054;2023-07-08T15:35:11;5.90;;;3.22;;
79330;SDS011;68797;49.782;19.054;2023-07-08T15:38:14;3.42;;;2.50;;
79330;SDS011;68797;49.782;19.054;2023-07-08T15:41:25;4.22;;;2.65;;
79330;SDS011;68797;49.782;19.054;2023-07-08T15:47:09;3.80;;;3.15;;
79330;SDS011;68797;49.782;19.054;2023-07-08T15:50:07;5.47;;;3.10;;
79330;SDS011;68797;49.782;19.054;2023-07-08T15:56:17;4.45;;;3.00;;
79330;SDS011;68797;49.782;19.054;2023-07-08T15:59:11;8.60;;;4.68;;
79330;SDS011;68797;49.782;19.054;2023-07-08T16:06:17;5.35;;;3.20;;
79330;SDS011;68797;49.782;19.054;2023-07-08T16:09:15;4.30;;;2.70;;
79330;SDS011;68797;49.782;19.054;2023-07-08T16:11:58;3.78;;;2.40;;
79330;SDS011;68797;49.782;19.054;2023-07-08T16:14:46;3.60;;;2.83;;
79330;SDS011;68797;49.782;19.054;2023-07-08T16:17:46;3.45;;;2.83;;
79330;SDS011;68797;49.782;19.054;2023-07-08T16:24:08;5.00;;;3.03;;
79330;SDS011;68797;49.782;19.054;2023-07-08T16:27:38;4.53;;;3.67;;
79330;SDS011;68797;49.782;19.054;2023-07-08T16:30:38;18.05;;;10.45;;
79330;SDS011;68797;49.782;19.054;2023-07-08T16:33:43;5.10;;;3.22;;
79330;SDS011;68797;49.782;19.054;2023-07-08T16:36:46;4.22;;;2.50;;
79330;SDS011;68797;49.782;19.054;2023-07-08T16:40:47;4.15;;;3.08;;
79330;SDS011;68797;49.782;19.054;2023-07-08T16:44:39;5.65;;;3.53;;
79330;SDS011;68797;49.782;19.054;2023-07-08T16:48:26;7.72;;;4.57;;
79330;SDS011;68797;49.782;19.054;2023-07-08T16:52:16;5.57;;;3.88;;
79330;SDS011;68797;49.782;19.054;2023-07-08T16:56:05;7.00;;;3.17;;
79330;SDS011;68797;49.782;19.054;2023-07-08T17:00:02;4.80;;;2.50;;
79330;SDS011;68797;49.782;19.054;2023-07-08T17:09:59;3.58;;;2.67;;
79330;SDS011;68797;49.782;19.054;2023-07-08T17:17:31;5.60;;;2.80;;
79330;SDS011;68797;49.782;19.054;2023-07-08T17:21:40;5.60;;;2.72;;
79330;SDS011;68797;49.782;19.054;2023-07-08T17:25:32;3.38;;;2.80;;
79330;SDS011;68797;49.782;19.054;2023-07-08T17:33:46;4.70;;;2.92;;
79330;SDS011;68797;49.782;19.054;2023-07-08T17:37:30;4.88;;;2.67;;
79330;SDS011;68797;49.782;19.054;2023-07-08T17:44:58;4.20;;;3.00;;
79330;SDS011;68797;49.782;19.054;2023-07-08T17:52:59;4.28;;;3.03;;
79330;SDS011;68797;49.782;19.054;2023-07-08T17:56:45;3.80;;;2.70;;
79330;SDS011;68797;49.782;19.054;2023-07-08T18:00:29;4.47;;;2.67;;
79330;SDS011;68797;49.782;19.054;2023-07-08T18:04:39;3.80;;;2.40;;
79330;SDS011;68797;49.782;19.054;2023-07-08T18:08:39;6.47;;;2.63;;
79330;SDS011;68797;49.782;19.054;2023-07-08T18:12:19;4.97;;;2.70;;
79330;SDS011;68797;49.782;19.054;2023-07-08T18:19:42;4.32;;;2.28;;
79330;SDS011;68797;49.782;19.054;2023-07-08T18:22:56;3.97;;;2.70;;
79330;SDS011;68797;49.782;19.054;2023-07-08T18:29:25;6.03;;;2.70;;
79330;SDS011;68797;49.782;19.054;2023-07-08T18:32:39;8.43;;;2.92;;
79330;SDS011;68797;49.782;19.054;2023-07-08T18:36:31;5.25;;;2.65;;
79330;SDS011;68797;49.782;19.054;2023-07-08T18:39:52;6.82;;;3.40;;
79330;SDS011;68797;49.782;19.054;2023-07-08T18:43:48;3.03;;;2.50;;
79330;SDS011;68797;49.782;19.054;2023-07-08T18:46:50;7.07;;;2.90;;
79330;SDS011;68797;49.782;19.054;2023-07-08T18:50:16;6.22;;;2.80;;
79330;SDS011;68797;49.782;19.054;2023-07-08T18:58:20;7.50;;;3.60;;
79330;SDS011;68797;49.782;19.054;2023-07-08T19:02:00;5.63;;;3.17;;
79330;SDS011;68797;49.782;19.054;2023-07-08T19:05:28;7.20;;;3.13;;
79330;SDS011;68797;49.782;19.054;2023-07-08T19:08:26;7.32;;;3.10;;
79330;SDS011;68797;49.782;19.054;2023-07-08T19:11:48;6.15;;;3.05;;
79330;SDS011;68797;49.782;19.054;2023-07-08T19:14:46;6.95;;;3.38;;
79330;SDS011;68797;49.782;19.054;2023-07-08T19:18:09;21.13;;;4.10;;
79330;SDS011;68797;49.782;19.054;2023-07-08T19:20:46;12.00;;;4.20;;
79330;SDS011;68797;49.782;19.054;2023-07-08T19:23:24;13.90;;;4.25;;
79330;SDS011;68797;49.782;19.054;2023-07-08T19:26:28;7.97;;;4.72;;
79330;SDS011;68797;49.782;19.054;2023-07-08T19:29:24;4.25;;;3.40;;
79330;SDS011;68797;49.782;19.054;2023-07-08T19:32:25;6.80;;;3.63;;
79330;SDS011;68797;49.782;19.054;2023-07-08T19:35:33;4.95;;;2.80;;
79330;SDS011;68797;49.782;19.054;2023-07-08T19:42:35;10.30;;;5.15;;
79330;SDS011;68797;49.782;19.054;2023-07-08T19:45:29;8.20;;;4.25;;
79330;SDS011;68797;49.782;19.054;2023-07-08T19:48:32;12.95;;;6.82;;
79330;SDS011;68797;49.782;19.054;2023-07-08T19:54:51;20.35;;;12.10;;
79330;SDS011;68797;49.782;19.054;2023-07-08T19:58:46;14.93;;;9.88;;
79330;SDS011;68797;49.782;19.054;2023-07-08T20:01:53;16.27;;;7.03;;